Wetterdaten: Woche 07.06.10 - 13.06.10 (KW23)
Datum Zeit Temp. A. Feuchte A. Luftdruck Regen Wind Richtung Taupunkt Windchill Windben
07.06.2010 00:00 17,8 C 81 % 1010,5 hPa 0,0 l/m 0,0 km/h N 14,4 C 17,8 C 0,0 km/h
07.06.2010 01:00 17,3 C 83 % 1010,1 hPa 0,0 l/m 0,0 km/h N 14,4 C 17,3 C 0,8 km/h
07.06.2010 02:00 17,8 C 81 % 1009,7 hPa 0,0 l/m 0,7 km/h S-SW 14,4 C 17,8 C 6,8 km/h
07.06.2010 03:00 17,3 C 80 % 1009,3 hPa 0,0 l/m 0,1 km/h N 13,7 C 17,3 C 1,6 km/h
07.06.2010 04:00 16,4 C 83 % 1010,0 hPa 0,0 l/m 0,3 km/h N 13,4 C 16,4 C 3,2 km/h
07.06.2010 05:00 16,0 C 85 % 1010,6 hPa 0,0 l/m 0,3 km/h N 13,4 C 16,0 C 3,2 km/h
07.06.2010 06:00 16,5 C 87 % 1011,0 hPa 0,0 l/m 0,0 km/h SW 14,3 C 16,5 C 4,8 km/h
07.06.2010 07:00 19,3 C 83 % 1011,2 hPa 0,0 l/m 2,4 km/h S-SW 16,2 C 19,3 C 16,9 km/h
07.06.2010 08:00 21,5 C 73 % 1011,5 hPa 0,0 l/m 4,8 km/h NW 16,3 C 21,5 C 18,5 km/h
07.06.2010 09:00 22,1 C 69 % 1011,8 hPa 0,0 l/m 3,2 km/h NW 16,0 C 22,1 C 16,1 km/h
07.06.2010 10:00 23,0 C 65 % 1012,0 hPa 0,0 l/m 4,8 km/h W-NW 16,1 C 23,0 C 21,7 km/h
07.06.2010 11:00 24,5 C 59 % 1011,8 hPa 0,0 l/m 4,8 km/h NW 16,0 C 24,5 C 19,3 km/h
07.06.2010 12:00 25,2 C 58 % 1011,8 hPa 0,0 l/m 5,6 km/h N-NW 16,2 C 25,2 C 19,3 km/h
07.06.2010 13:00 25,8 C 53 % 1011,5 hPa 0,0 l/m 5,6 km/h N-NW 15,3 C 25,8 C 16,1 km/h
07.06.2010 14:00 26,0 C 54 % 1011,0 hPa 0,0 l/m 4,8 km/h NW 15,8 C 26,0 C 17,7 km/h
07.06.2010 15:00 26,5 C 55 % 1010,9 hPa 0,0 l/m 5,2 km/h NW 16,6 C 26,5 C 11,3 km/h
07.06.2010 16:00 26,2 C 55 % 1010,7 hPa 0,0 l/m 4,1 km/h N-NW 16,3 C 26,2 C 10,9 km/h
07.06.2010 17:00 24,9 C 61 % 1010,7 hPa 0,0 l/m 1,1 km/h N 16,7 C 24,9 C 4,0 km/h
07.06.2010 18:00 24,9 C 59 % 1010,6 hPa 0,0 l/m 0,9 km/h SW 16,3 C 24,9 C 5,2 km/h
07.06.2010 19:00 24,6 C 58 % 1010,4 hPa 0,0 l/m 2,5 km/h SW 15,7 C 24,6 C 8,4 km/h
07.06.2010 20:00 23,0 C 65 % 1010,3 hPa 0,0 l/m 0,2 km/h N 15,9 C 23,0 C 2,0 km/h
07.06.2010 21:00 21,1 C 73 % 1010,8 hPa 0,0 l/m 0,1 km/h N 16,1 C 21,1 C 1,2 km/h
07.06.2010 22:00 20,6 C 76 % 1011,0 hPa 0,0 l/m 0,0 km/h N 16,1 C 20,6 C 0,8 km/h
07.06.2010 23:00 20,6 C 74 % 1010,7 hPa 0,0 l/m 0,1 km/h N 15,9 C 20,6 C 1,6 km/h
08.06.2010 00:00 20,1 C 76 % 1010,5 hPa 0,0 l/m 0,0 km/h N 15,8 C 20,1 C 1,2 km/h
08.06.2010 01:00 20,0 C 76 % 1010,4 hPa 0,0 l/m 0,1 km/h N 15,7 C 20,0 C 2,8 km/h
08.06.2010 02:00 19,7 C 80 % 1010,1 hPa 0,0 l/m 0,0 km/h N 16,1 C 19,7 C 0,0 km/h
08.06.2010 03:00 19,0 C 82 % 1009,9 hPa 0,0 l/m 0,0 km/h N 15,9 C 19,0 C 0,8 km/h
08.06.2010 04:00 18,6 C 83 % 1009,8 hPa 0,0 l/m 0,0 km/h N 15,7 C 18,6 C 0,4 km/h
08.06.2010 05:00 18,2 C 85 % 1010,0 hPa 0,0 l/m 0,0 km/h N 15,7 C 18,2 C 0,0 km/h
08.06.2010 06:00 18,4 C 86 % 1010,2 hPa 0,0 l/m 0,0 km/h N 16,1 C 18,4 C 0,0 km/h
08.06.2010 07:00 19,1 C 86 % 1010,2 hPa 0,0 l/m 0,0 km/h N 16,6 C 19,1 C 0,0 km/h
08.06.2010 08:00 20,0 C 85 % 1010,3 hPa 0,0 l/m 0,0 km/h N 17,4 C 20,0 C 0,0 km/h
08.06.2010 09:00 22,5 C 78 % 1010,2 hPa 0,0 l/m 0,4 km/h O 18,5 C 22,5 C 2,4 km/h
08.06.2010 10:00 24,2 C 69 % 1009,8 hPa 0,0 l/m 1,4 km/h O-NO 18,1 C 24,2 C 6,0 km/h
08.06.2010 11:00 25,1 C 67 % 1009,6 hPa 0,0 l/m 1,5 km/h O 18,4 C 25,1 C 6,4 km/h
08.06.2010 12:00 26,8 C 64 % 1009,2 hPa 0,0 l/m 2,2 km/h O-SO 19,2 C 26,8 C 11,3 km/h
08.06.2010 13:00 27,4 C 61 % 1008,5 hPa 0,0 l/m 2,6 km/h O-NO 19,2 C 27,4 C 9,6 km/h
08.06.2010 14:00 27,5 C 60 % 1008,1 hPa 0,0 l/m 2,5 km/h O 18,9 C 27,5 C 7,5 km/h
08.06.2010 15:00 28,8 C 54 % 1007,5 hPa 0,0 l/m 1,9 km/h O 18,4 C 28,8 C 7,7 km/h
08.06.2010 16:00 28,9 C 55 % 1007,0 hPa 0,0 l/m 2,1 km/h O-NO 18,8 C 28,9 C 10,5 km/h
08.06.2010 17:00 27,9 C 57 % 1006,8 hPa 0,0 l/m 1,7 km/h O 18,4 C 27,9 C 6,0 km/h
08.06.2010 18:00 27,1 C 57 % 1006,8 hPa 0,0 l/m 1,0 km/h S-SO 17,7 C 27,1 C 6,4 km/h
08.06.2010 19:00 26,4 C 59 % 1006,6 hPa 0,0 l/m 0,4 km/h N 17,8 C 26,4 C 4,8 km/h
08.06.2010 20:00 25,7 C 63 % 1006,6 hPa 0,0 l/m 0,6 km/h N 18,1 C 25,7 C 5,2 km/h
08.06.2010 21:00 24,5 C 68 % 1007,2 hPa 0,0 l/m 0,2 km/h N 18,1 C 24,5 C 2,4 km/h
08.06.2010 22:00 22,0 C 76 % 1007,5 hPa 0,0 l/m 0,0 km/h N 17,7 C 22,0 C 0,0 km/h
08.06.2010 23:00 20,5 C 82 % 1007,5 hPa 0,0 l/m 0,0 km/h N 17,2 C 20,5 C 0,0 km/h
09.06.2010 00:00 20,3 C 82 % 1007,2 hPa 0,0 l/m 0,1 km/h N 17,1 C 20,3 C 2,4 km/h
09.06.2010 01:00 21,0 C 78 % 1007,1 hPa 0,0 l/m 0,2 km/h N 17,0 C 21,0 C 4,4 km/h
09.06.2010 02:00 19,9 C 81 % 1007,3 hPa 0,0 l/m 0,0 km/h N 16,6 C 19,9 C 0,0 km/h
09.06.2010 03:00 19,2 C 84 % 1007,1 hPa 0,0 l/m 0,1 km/h N 16,3 C 19,2 C 2,0 km/h
09.06.2010 04:00 18,7 C 84 % 1007,0 hPa 0,0 l/m 0,0 km/h N 15,9 C 18,7 C 0,4 km/h
09.06.2010 05:00 17,7 C 86 % 1007,3 hPa 0,0 l/m 0,0 km/h N 15,3 C 17,7 C 0,4 km/h
09.06.2010 06:00 18,3 C 88 % 1007,8 hPa 0,0 l/m 0,0 km/h N 16,3 C 18,3 C 0,4 km/h
09.06.2010 07:00 19,8 C 86 % 1008,1 hPa 0,0 l/m 0,1 km/h N 17,3 C 19,8 C 0,8 km/h
09.06.2010 08:00 21,3 C 83 % 1008,3 hPa 0,0 l/m 0,3 km/h N 18,3 C 21,3 C 2,0 km/h
09.06.2010 09:00 22,9 C 78 % 1008,7 hPa 0,0 l/m 0,8 km/h NO 18,8 C 22,9 C 3,6 km/h
09.06.2010 10:00 24,3 C 74 % 1008,8 hPa 0,0 l/m 1,4 km/h O-NO 19,2 C 24,3 C 4,8 km/h
09.06.2010 11:00 25,9 C 68 % 1008,7 hPa 0,0 l/m 1,8 km/h O-NO 19,4 C 25,9 C 5,6 km/h
09.06.2010 12:00 26,8 C 66 % 1008,3 hPa 0,0 l/m 2,0 km/h O 19,9 C 26,8 C 5,6 km/h
09.06.2010 13:00 27,7 C 62 % 1007,8 hPa 0,0 l/m 2,2 km/h O 19,7 C 27,7 C 6,8 km/h
09.06.2010 14:00 28,7 C 55 % 1007,2 hPa 0,0 l/m 3,2 km/h O 18,7 C 28,7 C 9,6 km/h
09.06.2010 15:00 29,9 C 51 % 1006,8 hPa 0,0 l/m 2,5 km/h NO 18,5 C 29,9 C 8,4 km/h
09.06.2010 16:00 30,3 C 47 % 1006,1 hPa 0,0 l/m 2,5 km/h O-NO 17,7 C 30,3 C 10,4 km/h
09.06.2010 17:00 30,5 C 46 % 1005,9 hPa 0,0 l/m 3,3 km/h S-SO 17,4 C 30,5 C 17,3 km/h
09.06.2010 18:00 28,8 C 52 % 1005,9 hPa 0,0 l/m 1,6 km/h O-NO 17,9 C 28,8 C 6,4 km/h
09.06.2010 19:00 28,0 C 53 % 1006,0 hPa 0,0 l/m 1,7 km/h O-SO 17,6 C 28,0 C 8,8 km/h
09.06.2010 20:00 27,0 C 56 % 1006,1 hPa 0,0 l/m 1,2 km/h SW 17,5 C 27,0 C 8,4 km/h
09.06.2010 21:00 25,3 C 62 % 1006,6 hPa 0,0 l/m 0,7 km/h N 17,4 C 25,3 C 6,8 km/h
09.06.2010 22:00 22,0 C 76 % 1006,9 hPa 0,0 l/m 0,0 km/h N 17,5 C 22,0 C 0,4 km/h
09.06.2010 23:00 21,8 C 75 % 1006,7 hPa 0,0 l/m 0,1 km/h N 17,0 C 21,8 C 2,8 km/h
10.06.2010 00:00 21,9 C 72 % 1006,7 hPa 0,0 l/m 0,1 km/h N 16,5 C 21,9 C 2,0 km/h
10.06.2010 01:00 20,3 C 74 % 1006,4 hPa 0,0 l/m 0,0 km/h N 15,6 C 20,3 C 0,0 km/h
10.06.2010 02:00 20,0 C 73 % 1006,2 hPa 0,0 l/m 0,1 km/h N 14,9 C 20,0 C 3,2 km/h
10.06.2010 03:00 19,5 C 70 % 1006,2 hPa 0,0 l/m 0,1 km/h N 13,9 C 19,5 C 2,0 km/h
10.06.2010 04:00 20,4 C 62 % 1006,5 hPa 0,0 l/m 1,3 km/h S 12,9 C 20,4 C 7,2 km/h
10.06.2010 05:00 20,0 C 62 % 1006,9 hPa 0,0 l/m 0,7 km/h S 12,5 C 20,0 C 5,2 km/h
10.06.2010 06:00 21,5 C 57 % 1007,2 hPa 0,0 l/m 2,1 km/h O-NO 12,6 C 21,5 C 8,4 km/h
10.06.2010 07:00 22,1 C 57 % 1007,4 hPa 0,0 l/m 1,4 km/h S 13,1 C 22,1 C 8,5 km/h
10.06.2010 08:00 23,2 C 58 % 1008,0 hPa 0,0 l/m 0,1 km/h N 14,4 C 23,2 C 2,8 km/h
10.06.2010 09:00 25,0 C 57 % 1008,2 hPa 0,0 l/m 0,2 km/h SO 15,7 C 25,0 C 3,2 km/h
10.06.2010 10:00 26,1 C 63 % 1008,2 hPa 0,0 l/m 1,6 km/h O-SO 18,4 C 26,1 C 4,4 km/h
10.06.2010 11:00 28,0 C 58 % 1008,1 hPa 0,0 l/m 2,0 km/h O 18,9 C 28,0 C 4,8 km/h
10.06.2010 12:00 28,8 C 55 % 1008,1 hPa 0,0 l/m 2,1 km/h O 18,8 C 28,8 C 6,0 km/h
10.06.2010 13:00 29,0 C 53 % 1007,8 hPa 0,0 l/m 2,8 km/h O 18,3 C 29,0 C 6,4 km/h
10.06.2010 14:00 29,2 C 53 % 1007,3 hPa 0,0 l/m 2,5 km/h O 18,7 C 29,2 C 6,0 km/h
10.06.2010 15:00 29,0 C 54 % 1007,0 hPa 0,0 l/m 2,6 km/h O 18,8 C 29,0 C 6,4 km/h
10.06.2010 16:00 29,0 C 56 % 1006,8 hPa 0,0 l/m 1,8 km/h O 19,2 C 29,0 C 4,4 km/h
10.06.2010 17:00 29,2 C 52 % 1006,3 hPa 0,0 l/m 0,9 km/h N 18,1 C 29,2 C 4,8 km/h
10.06.2010 18:00 28,6 C 57 % 1006,0 hPa 0,0 l/m 0,5 km/h N 19,1 C 28,6 C 2,8 km/h
10.06.2010 19:00 27,4 C 65 % 1005,9 hPa 0,0 l/m 0,3 km/h N 20,1 C 27,4 C 1,6 km/h
10.06.2010 20:00 25,2 C 73 % 1006,0 hPa 0,0 l/m 0,0 km/h N 20,0 C 25,2 C 0,4 km/h
10.06.2010 21:00 22,5 C 81 % 1006,4 hPa 0,0 l/m 0,0 km/h N 19,0 C 22,5 C 0,0 km/h
10.06.2010 22:00 21,3 C 84 % 1006,5 hPa 0,0 l/m 0,0 km/h N 18,5 C 21,3 C 0,0 km/h
10.06.2010 23:00 20,8 C 86 % 1006,5 hPa 0,0 l/m 0,0 km/h N 18,3 C 20,8 C 0,0 km/h
11.06.2010 00:00 19,5 C 88 % 1006,5 hPa 0,0 l/m 0,0 km/h N 17,5 C 19,5 C 0,0 km/h
11.06.2010 01:00 18,8 C 89 % 1006,5 hPa 0,0 l/m 0,0 km/h N 16,9 C 18,8 C 0,0 km/h
11.06.2010 02:00 18,2 C 89 % 1006,0 hPa 0,0 l/m 0,0 km/h N 16,4 C 18,2 C 0,0 km/h
11.06.2010 03:00 17,5 C 90 % 1005,8 hPa 0,0 l/m 0,0 km/h N 15,8 C 17,5 C 0,0 km/h
11.06.2010 04:00 16,8 C 91 % 1005,7 hPa 0,0 l/m 0,0 km/h N 15,2 C 16,8 C 0,0 km/h
11.06.2010 05:00 16,6 C 91 % 1005,8 hPa 0,0 l/m 0,0 km/h N 15,1 C 16,6 C 0,0 km/h
11.06.2010 06:00 18,1 C 91 % 1006,1 hPa 0,0 l/m 0,0 km/h N 16,5 C 18,1 C 0,0 km/h
11.06.2010 07:00 20,0 C 85 % 1006,1 hPa 0,0 l/m 0,0 km/h N 17,4 C 20,0 C 0,0 km/h
11.06.2010 08:00 21,9 C 82 % 1006,5 hPa 0,0 l/m 0,1 km/h N 18,7 C 21,9 C 1,6 km/h
11.06.2010 09:00 23,8 C 75 % 1006,9 hPa 0,0 l/m 0,0 km/h N 19,0 C 23,8 C 0,0 km/h
11.06.2010 10:00 25,8 C 72 % 1006,9 hPa 0,0 l/m 0,0 km/h N 20,3 C 25,8 C 0,0 km/h
11.06.2010 11:00 27,5 C 69 % 1006,8 hPa 0,0 l/m 0,0 km/h N 21,3 C 27,5 C 0,0 km/h
11.06.2010 12:00 28,3 C 67 % 1006,8 hPa 0,0 l/m 0,0 km/h N 21,6 C 28,3 C 0,0 km/h
11.06.2010 13:00 28,6 C 64 % 1006,4 hPa 0,0 l/m 0,0 km/h N 21,2 C 28,6 C 0,0 km/h
11.06.2010 14:00 29,4 C 65 % 1006,0 hPa 0,0 l/m 0,0 km/h N 21,9 C 29,4 C 0,0 km/h
11.06.2010 15:00 30,3 C 56 % 1005,2 hPa 0,0 l/m 0,0 km/h N 20,4 C 30,3 C 0,0 km/h
11.06.2010 16:00 31,4 C 52 % 1004,7 hPa 0,0 l/m 0,0 km/h N 20,2 C 31,4 C 0,0 km/h
11.06.2010 17:00 31,3 C 52 % 1004,4 hPa 0,0 l/m 1,7 km/h NO 20,1 C 31,3 C 2,4 km/h
11.06.2010 18:00 31,3 C 51 % 1004,1 hPa 0,0 l/m 2,1 km/h NO 20,0 C 31,3 C 5,6 km/h
11.06.2010 19:00 30,9 C 54 % 1004,3 hPa 0,0 l/m 1,7 km/h N-NW 20,4 C 30,9 C 6,0 km/h
11.06.2010 20:00 29,3 C 61 % 1004,6 hPa 0,0 l/m 0,5 km/h W-SW 20,8 C 29,3 C 2,8 km/h
11.06.2010 21:00 27,6 C 65 % 1005,2 hPa 0,0 l/m 0,4 km/h N 20,4 C 27,6 C 2,0 km/h
11.06.2010 22:00 25,9 C 70 % 1005,7 hPa 0,0 l/m 0,1 km/h N 19,9 C 25,9 C 2,8 km/h
11.06.2010 23:00 24,9 C 73 % 1005,9 hPa 0,0 l/m 0,1 km/h N 19,6 C 24,9 C 2,8 km/h
12.06.2010 00:00 23,9 C 76 % 1006,3 hPa 0,0 l/m 0,0 km/h N 19,3 C 23,9 C 0,4 km/h
12.06.2010 01:00 23,5 C 73 % 1006,3 hPa 0,0 l/m 0,8 km/h S-SW 18,4 C 23,5 C 6,0 km/h
12.06.2010 02:00 24,3 C 67 % 1006,5 hPa 0,0 l/m 0,8 km/h S-SO 17,8 C 24,3 C 6,0 km/h
12.06.2010 03:00 24,3 C 67 % 1006,6 hPa 0,0 l/m 0,4 km/h N 17,6 C 24,3 C 5,6 km/h
12.06.2010 04:00 23,0 C 71 % 1006,9 hPa 0,0 l/m 0,1 km/h N 17,4 C 23,0 C 2,0 km/h
12.06.2010 05:00 22,3 C 74 % 1006,8 hPa 0,0 l/m 0,1 km/h N 17,5 C 22,3 C 2,0 km/h
12.06.2010 06:00 22,9 C 77 % 1007,0 hPa 0,0 l/m 0,4 km/h W-SW 18,5 C 22,9 C 2,0 km/h
12.06.2010 07:00 23,8 C 75 % 1007,1 hPa 0,0 l/m 0,4 km/h N 19,1 C 23,8 C 3,6 km/h
12.06.2010 08:00 25,0 C 73 % 1006,9 hPa 0,0 l/m 1,1 km/h N-NW 19,7 C 25,0 C 5,2 km/h
12.06.2010 09:00 25,9 C 70 % 1006,6 hPa 0,0 l/m 1,1 km/h N-NO 19,9 C 25,9 C 4,8 km/h
12.06.2010 10:00 27,2 C 68 % 1006,3 hPa 0,0 l/m 1,1 km/h NO 20,8 C 27,2 C 4,0 km/h
12.06.2010 11:00 28,1 C 67 % 1006,0 hPa 0,0 l/m 1,3 km/h O-NO 21,3 C 28,1 C 3,6 km/h
12.06.2010 12:00 28,6 C 64 % 1005,9 hPa 0,0 l/m 1,3 km/h O-NO 21,2 C 28,6 C 4,8 km/h
12.06.2010 13:00 29,0 C 64 % 1005,7 hPa 0,0 l/m 1,3 km/h O 21,5 C 29,0 C 5,2 km/h
12.06.2010 14:00 29,3 C 66 % 1005,2 hPa 0,0 l/m 1,4 km/h O-SO 22,2 C 29,3 C 5,2 km/h
12.06.2010 15:00 29,6 C 64 % 1004,7 hPa 0,0 l/m 2,4 km/h O 22,2 C 29,6 C 6,0 km/h
12.06.2010 16:00 29,9 C 60 % 1004,4 hPa 0,0 l/m 2,5 km/h O 21,1 C 29,9 C 6,0 km/h
12.06.2010 17:00 29,4 C 61 % 1004,1 hPa 0,0 l/m 1,6 km/h O 21,1 C 29,4 C 3,6 km/h
12.06.2010 18:00 28,3 C 62 % 1003,7 hPa 0,0 l/m 1,0 km/h NO 20,2 C 28,3 C 2,8 km/h
12.06.2010 19:00 27,9 C 61 % 1003,6 hPa 0,0 l/m 0,9 km/h NO 19,7 C 27,9 C 4,0 km/h
12.06.2010 20:00 23,2 C 68 % 1007,6 hPa 1,6 l/m 8,6 km/h NW 16,7 C 22,3 C 30,2 km/h
12.06.2010 21:00 19,5 C 85 % 1006,6 hPa 0,0 l/m 1,1 km/h S-SO 16,8 C 19,5 C 6,8 km/h
12.06.2010 22:00 20,8 C 76 % 1006,9 hPa 0,0 l/m 3,0 km/h SW 16,3 C 20,8 C 15,7 km/h
12.06.2010 23:00 22,7 C 73 % 1007,5 hPa 0,0 l/m 10,2 km/h W-SW 17,6 C 21,5 C 33,8 km/h
13.06.2010 00:00 22,6 C 73 % 1009,0 hPa 0,0 l/m 5,3 km/h N-NW 17,5 C 22,6 C 20,9 km/h
13.06.2010 01:00 22,1 C 74 % 1010,1 hPa 0,0 l/m 5,0 km/h NW 17,3 C 22,1 C 15,3 km/h
13.06.2010 02:00 21,6 C 76 % 1010,2 hPa 0,0 l/m 3,3 km/h N-NW 17,3 C 21,6 C 11,3 km/h
13.06.2010 03:00 21,1 C 78 % 1010,2 hPa 0,0 l/m 2,7 km/h NW 17,1 C 21,1 C 6,8 km/h
13.06.2010 04:00 21,0 C 77 % 1010,4 hPa 0,0 l/m 3,7 km/h N-NW 16,8 C 21,0 C 9,3 km/h
13.06.2010 05:00 20,8 C 78 % 1011,1 hPa 0,0 l/m 2,8 km/h NW 16,8 C 20,8 C 7,2 km/h
13.06.2010 06:00 20,6 C 79 % 1011,6 hPa 0,0 l/m 1,3 km/h N-NW 16,9 C 20,6 C 4,4 km/h
13.06.2010 07:00 20,8 C 77 % 1012,0 hPa 0,0 l/m 1,8 km/h N-NW 16,6 C 20,8 C 5,6 km/h
13.06.2010 08:00 21,0 C 77 % 1012,9 hPa 0,0 l/m 0,6 km/h N-NW 16,7 C 21,0 C 3,6 km/h
13.06.2010 09:00 21,6 C 75 % 1012,8 hPa 0,0 l/m 2,2 km/h N-NW 16,9 C 21,6 C 6,4 km/h
13.06.2010 10:00 22,4 C 71 % 1012,7 hPa 0,0 l/m 2,2 km/h NO 17,0 C 22,4 C 6,0 km/h
13.06.2010 11:00 23,0 C 70 % 1012,7 hPa 0,0 l/m 2,8 km/h N-NO 17,1 C 23,0 C 7,7 km/h
13.06.2010 12:00 23,6 C 67 % 1012,5 hPa 0,0 l/m 2,6 km/h N 17,0 C 23,6 C 6,8 km/h
13.06.2010 13:00 23,7 C 66 % 1012,1 hPa 0,0 l/m 2,9 km/h N-NO 16,9 C 23,7 C 7,6 km/h
13.06.2010 14:00 24,1 C 65 % 1011,6 hPa 0,0 l/m 2,4 km/h N-NW 17,1 C 24,1 C 7,2 km/h
13.06.2010 15:00 23,6 C 66 % 1011,1 hPa 0,0 l/m 2,1 km/h N-NO 16,9 C 23,6 C 6,8 km/h
13.06.2010 16:00 23,4 C 67 % 1010,8 hPa 0,0 l/m 1,8 km/h N-NO 16,9 C 23,4 C 5,2 km/h
13.06.2010 17:00 23,3 C 67 % 1010,4 hPa 0,0 l/m 2,7 km/h N-NW 16,8 C 23,3 C 6,8 km/h
13.06.2010 18:00 23,1 C 68 % 1009,7 hPa 0,0 l/m 2,7 km/h NO 16,9 C 23,1 C 6,8 km/h
13.06.2010 19:00 22,5 C 67 % 1009,8 hPa 0,0 l/m 2,1 km/h NO 16,0 C 22,5 C 5,2 km/h
13.06.2010 20:00 22,1 C 67 % 1009,7 hPa 0,0 l/m 1,4 km/h NO 15,7 C 22,1 C 5,2 km/h
13.06.2010 21:00 21,7 C 69 % 1010,0 hPa 0,0 l/m 1,8 km/h N-NW 15,8 C 21,7 C 5,6 km/h
13.06.2010 22:00 20,8 C 75 % 1009,9 hPa 1,0 l/m 0,5 km/h N-NW 16,1 C 20,8 C 3,2 km/h
13.06.2010 23:00 19,4 C 82 % 1010,3 hPa 2,1 l/m 1,1 km/h W-SW 16,2 C 19,4 C 4,8 km/h
Min-Datum _ 07.06.10 09.06.10 12.06.10 - 07.06.10 - 10.06.10 07.06.10 07.06.10
_ Min-Zeit 05:30 16:45 18:30 - 00:00 - 05:45 05:30 00:00
Minimum _ 15,9 C 43 % 1003,1 hPa - 0,0 km/h - 12,3 C 15,9 C 0,0 km/h
Max-Datum _ 11.06.10 11.06.10 13.06.10 13.06.10 12.06.10 - 11.06.10 11.06.10 12.06.10
_ Max-Zeit 16:45 06:00 08:45 23:30 20:15 - 14:15 16:30 20:15
Maximum _ 31,8 C 92 % 1013,0 hPa 2,1 l/m 16,8 km/h
NW
- 22,9 C 31,6 C 45,1 km/h
N-NO
Durchschnitt _ 23,7 C 70 % 1008,1 hPa #4,7 l/m 1,3 km/h O 17,5 C 23,7 C 5,3 km/h